createdAt,value
2019-03-29T00:00:40.364Z,9.44
2019-03-29T00:03:46.184Z,9.41
2019-03-29T00:06:51.915Z,9.39
2019-03-29T00:09:57.640Z,9.36
2019-03-29T00:13:03.371Z,9.35
2019-03-29T00:16:09.077Z,9.45
2019-03-29T00:19:14.831Z,9.66
2019-03-29T00:22:20.608Z,9.56
2019-03-29T00:25:26.362Z,9.39
2019-03-29T00:28:32.018Z,9.39
2019-03-29T00:31:37.794Z,9.29
2019-03-29T00:34:43.541Z,9.32
2019-03-29T00:37:53.647Z,9.27
2019-03-29T00:40:58.876Z,9.31
2019-03-29T00:44:04.675Z,9.25
2019-03-29T00:47:10.451Z,9.20
2019-03-29T00:50:16.235Z,9.33
2019-03-29T00:53:21.979Z,9.29
2019-03-29T00:56:27.717Z,9.26
2019-03-29T00:59:33.473Z,9.21
2019-03-29T01:02:39.205Z,9.18
2019-03-29T01:05:45.039Z,9.23
2019-03-29T01:08:50.739Z,9.23
2019-03-29T01:11:56.448Z,9.19
2019-03-29T01:15:02.241Z,9.06
2019-03-29T01:18:08.353Z,9.04
2019-03-29T01:21:14.273Z,9.02
2019-03-29T01:24:19.949Z,9.13
2019-03-29T01:27:25.603Z,9.20
2019-03-29T01:30:31.282Z,8.95
2019-03-29T01:33:37.034Z,8.81
2019-03-29T01:36:42.746Z,8.72
2019-03-29T01:39:48.501Z,8.76
2019-03-29T01:42:54.234Z,8.85
2019-03-29T01:45:59.984Z,8.81
2019-03-29T01:49:05.627Z,8.82
2019-03-29T01:52:11.459Z,8.82
2019-03-29T01:55:17.188Z,8.93
2019-03-29T01:58:22.888Z,9.03
2019-03-29T02:01:29.111Z,9.19
2019-03-29T02:04:34.983Z,9.21
2019-03-29T02:07:40.942Z,9.26
2019-03-29T02:10:46.687Z,9.53
2019-03-29T02:13:52.376Z,9.44
2019-03-29T02:16:58.175Z,9.43
2019-03-29T02:20:03.811Z,9.41
2019-03-29T02:23:09.569Z,9.46
2019-03-29T02:26:15.240Z,9.37
2019-03-29T02:29:21.022Z,9.44
2019-03-29T02:32:26.786Z,9.32
2019-03-29T02:35:32.534Z,9.29
2019-03-29T02:38:55.079Z,9.24
2019-03-29T02:41:49.057Z,9.20
2019-03-29T02:44:54.767Z,9.19
2019-03-29T02:48:00.610Z,9.13
2019-03-29T02:51:07.499Z,9.05
2019-03-29T02:54:13.246Z,8.98
2019-03-29T02:57:18.951Z,8.85
2019-03-29T03:00:25.719Z,8.81
2019-03-29T03:03:31.419Z,8.73
2019-03-29T03:06:38.207Z,8.71
2019-03-29T03:09:43.925Z,8.64
2019-03-29T03:12:49.632Z,8.56
2019-03-29T03:15:55.360Z,8.47
2019-03-29T03:19:01.042Z,8.38
2019-03-29T03:22:06.723Z,8.35
2019-03-29T03:25:12.898Z,8.41
2019-03-29T03:28:22.114Z,8.41
2019-03-29T03:31:29.426Z,8.41
2019-03-29T03:34:35.286Z,8.44
2019-03-29T03:37:41.025Z,8.38
2019-03-29T03:40:46.766Z,8.35
2019-03-29T03:43:52.515Z,8.23
2019-03-29T03:46:58.235Z,8.21
2019-03-29T03:50:04.009Z,8.23
2019-03-29T03:53:10.281Z,8.41
2019-03-29T03:56:17.922Z,8.61
2019-03-29T03:59:25.728Z,8.64
2019-03-29T04:02:31.600Z,8.51
2019-03-29T04:05:37.367Z,8.42
2019-03-29T04:08:43.045Z,8.33
2019-03-29T04:11:48.701Z,8.29
2019-03-29T04:14:54.407Z,8.15
2019-03-29T04:18:00.103Z,8.03
2019-03-29T04:21:05.830Z,7.93
2019-03-29T04:24:11.592Z,7.82
2019-03-29T04:27:17.339Z,7.77
2019-03-29T04:30:23.049Z,7.73
2019-03-29T04:33:28.774Z,7.72
2019-03-29T04:36:34.607Z,7.64
2019-03-29T04:39:40.321Z,7.60
2019-03-29T04:42:46.124Z,7.64
2019-03-29T04:45:51.941Z,7.63
2019-03-29T04:48:57.731Z,7.71
2019-03-29T04:52:03.470Z,7.73
2019-03-29T04:55:09.577Z,7.92
2019-03-29T04:58:16.213Z,7.90
2019-03-29T05:01:22.075Z,7.96
2019-03-29T05:04:27.798Z,7.96
2019-03-29T05:07:36.798Z,7.86
2019-03-29T05:10:40.994Z,7.88
2019-03-29T05:13:46.784Z,7.85
2019-03-29T05:16:52.456Z,7.92
2019-03-29T05:19:58.232Z,7.96
2019-03-29T05:23:03.935Z,8.00
2019-03-29T05:26:09.709Z,8.02
2019-03-29T05:29:15.494Z,8.06
2019-03-29T05:32:21.266Z,8.00
2019-03-29T05:35:27.025Z,8.13
2019-03-29T05:38:32.837Z,8.15
2019-03-29T05:41:39.658Z,8.15
2019-03-29T05:44:45.391Z,8.15
2019-03-29T05:47:51.094Z,8.17
2019-03-29T05:50:56.859Z,8.22
2019-03-29T05:54:02.680Z,8.33
2019-03-29T05:57:08.347Z,8.41
2019-03-29T06:00:16.732Z,8.54
2019-03-29T06:03:22.440Z,8.48
2019-03-29T06:06:28.195Z,8.61
2019-03-29T06:09:35.103Z,8.55
2019-03-29T06:12:40.959Z,8.63
2019-03-29T06:15:46.660Z,8.86
2019-03-29T06:18:52.364Z,8.85
2019-03-29T06:21:58.145Z,8.91
2019-03-29T06:25:03.845Z,8.97
2019-03-29T06:28:09.583Z,9.02
2019-03-29T06:31:15.384Z,9.15
2019-03-29T06:34:21.048Z,9.30
2019-03-29T06:37:27.974Z,9.43
2019-03-29T06:40:33.932Z,9.47
2019-03-29T06:43:39.661Z,9.58
2019-03-29T06:46:45.371Z,9.66
2019-03-29T06:49:51.093Z,10.14
2019-03-29T06:52:56.820Z,10.43
2019-03-29T06:56:02.584Z,10.17
2019-03-29T06:59:08.321Z,10.26
2019-03-29T07:02:14.174Z,10.34
2019-03-29T07:05:19.988Z,10.55
2019-03-29T07:08:25.966Z,10.61
2019-03-29T07:11:32.963Z,10.76
2019-03-29T07:14:38.704Z,10.93
2019-03-29T07:17:44.423Z,11.09
2019-03-29T07:20:50.077Z,11.08
2019-03-29T07:23:55.868Z,11.15
2019-03-29T07:27:01.707Z,11.31
2019-03-29T07:30:11.530Z,11.55
2019-03-29T07:33:17.317Z,11.60
2019-03-29T07:36:23.026Z,12.12
2019-03-29T07:39:28.900Z,12.30
2019-03-29T07:42:34.808Z,12.54
2019-03-29T07:45:40.526Z,12.56
2019-03-29T07:48:46.292Z,12.85
2019-03-29T07:51:52.092Z,12.59
2019-03-29T07:54:57.780Z,12.71
2019-03-29T07:58:03.522Z,13.24
2019-03-29T08:01:09.274Z,12.56
2019-03-29T08:04:15.123Z,12.55
2019-03-29T08:07:27.064Z,13.12
2019-03-29T08:10:31.287Z,13.09
2019-03-29T08:13:35.566Z,13.38
2019-03-29T08:16:41.533Z,13.00
2019-03-29T08:19:47.321Z,13.16
2019-03-29T08:22:54.163Z,13.23
2019-03-29T08:25:59.836Z,13.39
2019-03-29T08:29:05.530Z,13.44
2019-03-29T08:32:11.330Z,14.19
2019-03-29T08:35:17.013Z,14.07
2019-03-29T08:38:22.736Z,13.70
2019-03-29T08:41:28.459Z,13.70
2019-03-29T08:44:34.097Z,14.25
2019-03-29T08:47:39.848Z,14.24
2019-03-29T08:50:46.609Z,14.04
2019-03-29T08:53:52.366Z,13.99
2019-03-29T08:56:57.985Z,14.13
2019-03-29T09:00:03.719Z,13.52
2019-03-29T09:03:09.438Z,13.29
2019-03-29T09:06:15.358Z,12.95
2019-03-29T09:09:21.108Z,13.25
2019-03-29T09:12:26.935Z,13.75
2019-03-29T09:15:34.769Z,13.56
2019-03-29T09:18:40.565Z,13.28
2019-03-29T09:21:46.244Z,13.49
2019-03-29T09:24:52.080Z,13.88
2019-03-29T09:27:57.853Z,14.13
2019-03-29T09:31:03.684Z,14.08
2019-03-29T09:34:09.456Z,13.88
2019-03-29T09:37:15.180Z,13.79
2019-03-29T09:40:21.077Z,13.54
2019-03-29T09:43:27.031Z,13.73
2019-03-29T09:46:32.744Z,13.83
2019-03-29T09:49:38.462Z,14.16
2019-03-29T09:52:44.177Z,13.93
2019-03-29T09:55:53.296Z,14.15
2019-03-29T09:58:57.504Z,14.65
2019-03-29T10:02:03.207Z,14.83
2019-03-29T10:05:09.298Z,15.32
2019-03-29T10:08:15.141Z,15.19
2019-03-29T10:11:22.214Z,14.97
2019-03-29T10:14:27.975Z,15.09
2019-03-29T10:17:33.850Z,15.56
2019-03-29T10:20:39.534Z,15.36
2019-03-29T10:23:45.410Z,15.40
2019-03-29T10:26:51.111Z,15.41
2019-03-29T10:29:56.779Z,14.86
2019-03-29T10:33:02.454Z,14.67
2019-03-29T10:36:08.172Z,14.91
2019-03-29T10:39:14.006Z,14.78
2019-03-29T10:42:19.682Z,14.92
2019-03-29T10:45:25.447Z,14.69
2019-03-29T10:48:31.230Z,14.97
2019-03-29T10:51:36.951Z,15.28
2019-03-29T10:54:42.618Z,15.19
2019-03-29T10:57:48.339Z,15.52
2019-03-29T11:00:54.069Z,15.86
2019-03-29T11:03:59.812Z,15.48
2019-03-29T11:07:05.588Z,15.48
2019-03-29T11:10:15.383Z,15.59
2019-03-29T11:13:21.210Z,15.79
2019-03-29T11:16:26.960Z,16.23
2019-03-29T11:19:32.624Z,15.89
2019-03-29T11:22:38.364Z,15.63
2019-03-29T11:25:44.153Z,15.37
2019-03-29T11:28:49.897Z,15.28
2019-03-29T11:31:55.580Z,15.76
2019-03-29T11:35:01.294Z,16.33
2019-03-29T11:38:07.088Z,16.65
2019-03-29T11:41:12.794Z,15.92
2019-03-29T11:44:18.501Z,15.90
2019-03-29T11:47:24.185Z,16.25
2019-03-29T11:50:29.887Z,15.64
2019-03-29T11:53:35.715Z,15.83
2019-03-29T11:56:41.384Z,16.48
2019-03-29T11:59:47.120Z,15.57
2019-03-29T12:02:52.795Z,15.55
2019-03-29T12:05:58.599Z,16.03
2019-03-29T12:09:06.052Z,16.01
2019-03-29T12:12:12.276Z,16.53
2019-03-29T12:15:19.098Z,15.87
2019-03-29T12:18:24.850Z,16.29
2019-03-29T12:21:30.541Z,16.46
2019-03-29T12:24:36.274Z,16.69
2019-03-29T12:27:42.100Z,16.06
2019-03-29T12:30:47.862Z,16.39
2019-03-29T12:33:53.692Z,16.62
2019-03-29T12:36:59.367Z,16.37
2019-03-29T12:40:05.191Z,16.50
2019-03-29T12:43:12.741Z,16.85
2019-03-29T12:46:18.621Z,16.84
2019-03-29T12:49:24.403Z,16.55
2019-03-29T12:52:30.139Z,16.51
2019-03-29T12:55:35.918Z,16.42
2019-03-29T12:58:41.578Z,16.48
2019-03-29T13:01:47.390Z,16.67
2019-03-29T13:04:53.136Z,16.68
2019-03-29T13:07:58.919Z,16.15
2019-03-29T13:11:04.680Z,16.35
2019-03-29T13:14:12.576Z,16.41
2019-03-29T13:17:18.661Z,16.44
2019-03-29T13:20:24.570Z,16.76
2019-03-29T13:23:30.406Z,16.73
2019-03-29T13:26:36.281Z,16.92
2019-03-29T13:29:41.954Z,16.99
2019-03-29T13:32:47.766Z,16.74
2019-03-29T13:35:53.729Z,16.75
2019-03-29T13:38:59.581Z,16.92
2019-03-29T13:42:05.280Z,17.04
2019-03-29T13:45:12.154Z,17.07
2019-03-29T13:48:17.885Z,16.74
2019-03-29T13:51:23.571Z,16.71
2019-03-29T13:54:29.416Z,16.89
2019-03-29T13:57:35.323Z,16.88
2019-03-29T14:00:41.075Z,17.19
2019-03-29T14:03:46.808Z,17.09
2019-03-29T14:06:52.504Z,17.06
2019-03-29T14:09:58.257Z,16.62
2019-03-29T14:13:04.048Z,16.81
2019-03-29T14:16:09.714Z,17.20
2019-03-29T14:19:15.478Z,17.24
2019-03-29T14:22:21.386Z,16.93
2019-03-29T14:25:27.095Z,16.98
2019-03-29T14:28:32.882Z,16.64
2019-03-29T14:31:38.658Z,16.93
2019-03-29T14:34:44.406Z,17.33
2019-03-29T14:37:50.116Z,17.53
2019-03-29T14:40:55.912Z,17.20
2019-03-29T14:44:01.555Z,17.11
2019-03-29T14:47:07.335Z,17.18
2019-03-29T14:50:13.297Z,17.03
2019-03-29T14:53:19.134Z,16.98
2019-03-29T14:56:24.869Z,17.09
2019-03-29T14:59:30.573Z,17.18
2019-03-29T15:02:36.375Z,17.00
2019-03-29T15:05:42.369Z,17.03
2019-03-29T15:08:49.871Z,17.24
2019-03-29T15:11:55.782Z,17.17
2019-03-29T15:15:06.327Z,17.28
2019-03-29T15:18:09.954Z,17.28
2019-03-29T15:21:15.713Z,17.01
2019-03-29T15:24:21.454Z,17.05
2019-03-29T15:27:27.221Z,17.29
2019-03-29T15:30:33.094Z,16.90
2019-03-29T15:33:38.764Z,16.82
2019-03-29T15:36:44.518Z,16.96
2019-03-29T15:39:50.403Z,16.94
2019-03-29T15:42:56.210Z,16.89
2019-03-29T15:46:01.950Z,16.83
2019-03-29T15:49:07.730Z,16.94
2019-03-29T15:52:14.723Z,16.82
2019-03-29T15:55:20.532Z,16.60
2019-03-29T15:58:26.294Z,16.51
2019-03-29T16:01:39.055Z,16.42
2019-03-29T16:04:45.999Z,16.41
2019-03-29T16:07:51.806Z,16.45
2019-03-29T16:10:57.534Z,16.31
2019-03-29T16:14:03.355Z,16.25
2019-03-29T16:17:09.020Z,16.43
2019-03-29T16:20:14.693Z,16.26
2019-03-29T16:23:20.341Z,16.03
2019-03-29T16:26:26.072Z,15.92
2019-03-29T16:29:31.824Z,16.06
2019-03-29T16:32:37.553Z,15.97
2019-03-29T16:35:43.231Z,15.74
2019-03-29T16:38:48.957Z,15.53
2019-03-29T16:41:54.728Z,15.14
2019-03-29T16:45:00.659Z,14.93
2019-03-29T16:48:06.988Z,14.83
2019-03-29T16:51:12.864Z,14.68
2019-03-29T16:54:18.580Z,14.54
2019-03-29T16:57:24.351Z,14.35
2019-03-29T17:00:30.027Z,14.12
2019-03-29T17:03:35.763Z,14.25
2019-03-29T17:06:41.429Z,14.02
2019-03-29T17:09:47.082Z,14.06
2019-03-29T17:12:52.713Z,14.05
2019-03-29T17:16:02.073Z,13.88
2019-03-29T17:19:05.817Z,13.48
2019-03-29T17:22:11.512Z,13.25
2019-03-29T17:25:17.184Z,13.04
2019-03-29T17:28:23.010Z,12.75
2019-03-29T17:31:29.686Z,12.75
2019-03-29T17:34:36.033Z,12.60
2019-03-29T17:37:41.695Z,12.59
2019-03-29T17:40:47.414Z,12.26
2019-03-29T17:43:54.101Z,12.42
2019-03-29T17:47:00.971Z,12.52
2019-03-29T17:50:07.137Z,12.13
2019-03-29T17:53:14.553Z,11.82
2019-03-29T17:56:20.301Z,11.65
2019-03-29T17:59:26.044Z,11.37
2019-03-29T18:02:31.878Z,11.17
2019-03-29T18:05:37.641Z,10.94
2019-03-29T18:08:43.368Z,10.83
2019-03-29T18:11:49.067Z,10.84
2019-03-29T18:14:54.942Z,10.63
2019-03-29T18:18:00.814Z,10.61
2019-03-29T18:21:06.588Z,10.52
2019-03-29T18:24:12.414Z,10.39
2019-03-29T18:27:18.068Z,10.33
2019-03-29T18:30:38.094Z,10.06
2019-03-29T18:33:44.262Z,9.87
2019-03-29T18:36:50.653Z,9.65
2019-03-29T18:39:56.782Z,9.69
2019-03-29T18:43:02.460Z,9.63
2019-03-29T18:46:08.161Z,9.46
2019-03-29T18:49:13.934Z,9.31
2019-03-29T18:52:20.088Z,9.20
2019-03-29T18:55:26.251Z,9.16
2019-03-29T18:58:31.982Z,8.98
2019-03-29T19:01:37.712Z,9.02
2019-03-29T19:04:43.483Z,9.07
2019-03-29T19:07:49.293Z,8.86
2019-03-29T19:10:55.004Z,8.76
2019-03-29T19:14:00.795Z,8.60
2019-03-29T19:17:06.483Z,8.46
2019-03-29T19:20:26.213Z,8.34
2019-03-29T19:23:19.724Z,8.23
2019-03-29T19:26:25.458Z,8.20
2019-03-29T19:29:31.165Z,8.27
2019-03-29T19:32:36.949Z,8.14
2019-03-29T19:35:42.700Z,7.99
2019-03-29T19:38:48.558Z,7.84
2019-03-29T19:41:55.265Z,7.78
2019-03-29T19:45:01.026Z,7.68
2019-03-29T19:48:06.916Z,7.62
2019-03-29T19:51:12.611Z,7.58
2019-03-29T19:54:18.292Z,7.53
2019-03-29T19:57:24.013Z,7.51
2019-03-29T20:00:40.882Z,7.45
2019-03-29T20:03:46.556Z,7.41
2019-03-29T20:06:52.405Z,7.32
2019-03-29T20:09:58.094Z,7.26
2019-03-29T20:13:03.948Z,7.06
2019-03-29T20:16:09.669Z,7.03
2019-03-29T20:19:15.415Z,7.04
2019-03-29T20:22:21.240Z,6.89
2019-03-29T20:25:27.585Z,6.84
2019-03-29T20:28:33.474Z,6.69
2019-03-29T20:31:39.196Z,6.52
2019-03-29T20:34:44.898Z,6.60
2019-03-29T20:37:50.601Z,6.50
2019-03-29T20:40:56.298Z,6.42
2019-03-29T20:44:02.061Z,6.41
2019-03-29T20:47:07.747Z,6.39
2019-03-29T20:50:15.183Z,6.33
2019-03-29T20:53:20.882Z,6.12
2019-03-29T20:56:28.881Z,6.05
2019-03-29T20:59:34.063Z,5.96
2019-03-29T21:02:39.786Z,5.86
2019-03-29T21:05:45.544Z,6.22
2019-03-29T21:08:51.181Z,6.12
2019-03-29T21:11:56.902Z,6.23
2019-03-29T21:15:02.627Z,6.02
2019-03-29T21:18:08.463Z,6.10
2019-03-29T21:21:14.155Z,6.11
2019-03-29T21:24:19.934Z,5.96
2019-03-29T21:27:25.716Z,5.95
2019-03-29T21:30:31.465Z,5.71
2019-03-29T21:33:40.486Z,5.59
2019-03-29T21:36:45.630Z,5.60
2019-03-29T21:39:51.618Z,5.66
2019-03-29T21:42:57.605Z,5.53
2019-03-29T21:46:03.307Z,5.61
2019-03-29T21:49:09.089Z,5.49
2019-03-29T21:52:14.878Z,5.35
2019-03-29T21:55:20.593Z,5.17
2019-03-29T21:58:28.819Z,5.17
2019-03-29T22:01:34.500Z,5.09
2019-03-29T22:04:40.325Z,5.02
2019-03-29T22:07:46.067Z,5.05
2019-03-29T22:10:51.804Z,4.99
2019-03-29T22:13:57.496Z,5.08
2019-03-29T22:17:04.266Z,4.88
2019-03-29T22:20:10.979Z,4.71
2019-03-29T22:23:16.885Z,4.83
2019-03-29T22:26:22.611Z,4.68
2019-03-29T22:29:28.351Z,4.59
2019-03-29T22:32:34.068Z,4.54
2019-03-29T22:35:39.836Z,4.66
2019-03-29T22:38:46.614Z,4.80
2019-03-29T22:41:52.330Z,4.72
2019-03-29T22:44:58.062Z,4.66
2019-03-29T22:48:03.955Z,4.55
2019-03-29T22:51:09.626Z,4.49
2019-03-29T22:54:15.381Z,4.28
2019-03-29T22:57:21.076Z,4.24
2019-03-29T23:00:38.467Z,4.08
2019-03-29T23:03:45.784Z,4.09
2019-03-29T23:06:51.515Z,4.16
2019-03-29T23:09:57.183Z,4.13
2019-03-29T23:13:02.948Z,4.13
2019-03-29T23:16:08.813Z,4.11
2019-03-29T23:19:14.511Z,4.14
2019-03-29T23:22:20.228Z,4.05
2019-03-29T23:25:26.043Z,3.84
2019-03-29T23:28:31.711Z,3.84
2019-03-29T23:31:37.460Z,3.67
2019-03-29T23:34:43.215Z,3.67
2019-03-29T23:37:48.988Z,3.81
2019-03-29T23:40:54.688Z,3.76
2019-03-29T23:44:00.393Z,3.66
2019-03-29T23:47:06.079Z,3.56
2019-03-29T23:50:11.787Z,3.48
2019-03-29T23:53:17.430Z,3.47
2019-03-29T23:56:23.165Z,3.51
2019-03-29T23:59:28.840Z,3.49
